Time;durP1;ratioP1;P1;durP2;ratioP2;P2;SDS_P1;SDS_P2;PMS_P1;PMS_P2;Temp;Humidity;BMP_temperature;BMP_pressure;BME280_temperature;BME280_humidity;BME280_pressure;Samples;Min_cycle;Max_cycle;Signal;HPM_P1;HPM_P2
2021/12/10 00:01:37;;;;;;;0.20;0.20;;;;;;;;;;5034041;28;20737;-68
2021/12/10 00:04:06;;;;;;;0.10;0.10;;;;;;;;;;5039788;28;20665;-68
2021/12/10 00:06:36;;;;;;;0.20;0.20;;;;;;;;;;5044888;28;20680;-68
2021/12/10 00:09:06;;;;;;;0.20;0.20;;;;;;;;;;5041657;28;20709;-68
2021/12/10 00:11:35;;;;;;;0.10;0.10;;;;;;;;;;5041115;28;20215;-68
2021/12/10 00:14:04;;;;;;;0.20;0.20;;;;;;;;;;5037014;28;20622;-68
2021/12/10 00:16:32;;;;;;;0.20;0.20;;;;;;;;;;5040367;28;20656;-68
2021/12/10 00:19:13;;;;;;;0.13;0.13;;;;;;;;;;5042469;28;20643;-68
2021/12/10 00:21:41;;;;;;;0.20;0.20;;;;;;;;;;5041338;28;20667;-68
2021/12/10 00:24:10;;;;;;;0.20;0.20;;;;;;;;;;5030269;28;20657;-68
2021/12/10 00:26:41;;;;;;;0.10;0.10;;;;;;;;;;5044857;28;20609;-68
2021/12/10 00:29:10;;;;;;;0.20;0.20;;;;;;;;;;5041300;28;20207;-67
2021/12/10 00:31:48;;;;;;;0.20;0.20;;;;;;;;;;5044317;28;20629;-68
2021/12/10 00:34:19;;;;;;;0.10;0.10;;;;;;;;;;5034546;28;20281;-67
2021/12/10 00:36:48;;;;;;;0.10;0.10;;;;;;;;;;5041872;28;20644;-68
2021/12/10 00:39:18;;;;;;;0.30;0.30;;;;;;;;;;5035217;28;20297;-67
2021/12/10 00:41:45;;;;;;;0.47;0.47;;;;;;;;;;5039541;28;20249;-68
2021/12/10 00:44:13;;;;;;;0.70;0.70;;;;;;;;;;5035203;28;20223;-68
2021/12/10 00:46:40;;;;;;;1.30;1.20;;;;;;;;;;5035449;28;20627;-68
2021/12/10 00:49:08;;;;;;;1.17;1.07;;;;;;;;;;5040463;28;20299;-68
2021/12/10 00:51:36;;;;;;;1.13;1.03;;;;;;;;;;5043583;28;20721;-68
2021/12/10 00:54:05;;;;;;;1.40;1.30;;;;;;;;;;5035340;28;20613;-68
2021/12/10 00:56:33;;;;;;;1.20;1.20;;;;;;;;;;5040204;28;20625;-68
2021/12/10 00:59:00;;;;;;;1.35;1.25;;;;;;;;;;5041494;28;20211;-67
2021/12/10 01:01:29;;;;;;;1.20;1.10;;;;;;;;;;5038928;28;20222;-67
2021/12/10 01:03:59;;;;;;;1.30;1.20;;;;;;;;;;5044989;28;20195;-68
2021/12/10 01:06:28;;;;;;;1.13;1.13;;;;;;;;;;5036934;28;20203;-68
2021/12/10 01:08:56;;;;;;;2.42;1.85;;;;;;;;;;5039206;28;20716;-68
2021/12/10 01:11:28;;;;;;;0.60;0.60;;;;;;;;;;5042554;28;20855;-68
2021/12/10 01:14:01;;;;;;;0.85;0.85;;;;;;;;;;5045223;28;20251;-67
2021/12/10 01:24:54;;;;;;;1.95;1.30;;;;;;;;;;5036842;28;20652;-68
2021/12/10 01:27:32;;;;;;;1.17;1.00;;;;;;;;;;5036247;28;20232;-68
2021/12/10 01:30:01;;;;;;;1.65;1.17;;;;;;;;;;5047247;28;20641;-67
2021/12/10 01:32:29;;;;;;;0.97;0.87;;;;;;;;;;5042004;28;20303;-68
2021/12/10 01:34:57;;;;;;;0.80;0.80;;;;;;;;;;5039945;28;20747;-68
2021/12/10 01:37:25;;;;;;;0.57;0.53;;;;;;;;;;5034511;28;20700;-68
2021/12/10 01:39:53;;;;;;;0.80;0.80;;;;;;;;;;5044261;28;20633;-68
2021/12/10 01:42:34;;;;;;;0.50;0.50;;;;;;;;;;5042924;28;20251;-68
2021/12/10 01:45:05;;;;;;;0.40;0.40;;;;;;;;;;5036923;28;20694;-68
2021/12/10 01:47:34;;;;;;;1.00;0.90;;;;;;;;;;5041117;28;20737;-68
2021/12/10 01:50:02;;;;;;;0.60;0.50;;;;;;;;;;5036866;28;20652;-68
2021/12/10 01:52:29;;;;;;;0.30;0.30;;;;;;;;;;5044460;28;20653;-68
2021/12/10 01:54:58;;;;;;;0.50;0.50;;;;;;;;;;5043304;28;20217;-68
2021/12/10 01:57:26;;;;;;;0.40;0.40;;;;;;;;;;5037664;28;20204;-68
2021/12/10 01:59:54;;;;;;;0.50;0.50;;;;;;;;;;5046045;28;20258;-68
2021/12/10 02:02:24;;;;;;;0.52;0.52;;;;;;;;;;5034655;28;20274;-68
2021/12/10 02:04:52;;;;;;;0.43;0.43;;;;;;;;;;5041329;28;20224;-68
2021/12/10 02:07:20;;;;;;;0.50;0.50;;;;;;;;;;5047086;28;20208;-68
2021/12/10 02:09:47;;;;;;;0.47;0.47;;;;;;;;;;5047016;28;20224;-68
2021/12/10 02:12:17;;;;;;;0.40;0.40;;;;;;;;;;5038417;28;20226;-67
2021/12/10 02:14:45;;;;;;;0.73;0.60;;;;;;;;;;5043529;28;20275;-67
2021/12/10 02:17:12;;;;;;;0.45;0.45;;;;;;;;;;5041182;28;20272;-68
2021/12/10 02:19:41;;;;;;;0.52;0.50;;;;;;;;;;5042797;28;20207;-67
2021/12/10 02:22:10;;;;;;;0.30;0.30;;;;;;;;;;5038074;28;20243;-67
2021/12/10 02:24:37;;;;;;;0.30;0.30;;;;;;;;;;5038037;28;20230;-67
2021/12/10 02:27:06;;;;;;;0.30;0.30;;;;;;;;;;5047322;28;20199;-67
2021/12/10 02:29:34;;;;;;;0.50;0.40;;;;;;;;;;5041150;28;20192;-67
2021/12/10 02:32:02;;;;;;;0.40;0.40;;;;;;;;;;5042737;28;20820;-67
2021/12/10 02:34:29;;;;;;;0.50;0.50;;;;;;;;;;5036006;28;20330;-67
2021/12/10 02:36:57;;;;;;;0.40;0.40;;;;;;;;;;5036957;28;20226;-67
2021/12/10 02:39:27;;;;;;;0.40;0.40;;;;;;;;;;5041064;28;20223;-67
2021/12/10 02:41:55;;;;;;;0.32;0.32;;;;;;;;;;5040664;28;20303;-67
2021/12/10 02:44:23;;;;;;;0.50;0.50;;;;;;;;;;5042228;28;20256;-67
2021/12/10 02:46:52;;;;;;;0.30;0.30;;;;;;;;;;5036602;28;20204;-67
2021/12/10 02:49:20;;;;;;;0.40;0.40;;;;;;;;;;5037119;28;20200;-68
2021/12/10 02:51:47;;;;;;;0.40;0.40;;;;;;;;;;5037775;28;20274;-67
2021/12/10 02:54:21;;;;;;;0.38;0.38;;;;;;;;;;5038359;28;20188;-67
2021/12/10 02:56:50;;;;;;;0.40;0.40;;;;;;;;;;5035683;28;20196;-67
2021/12/10 02:59:17;;;;;;;0.30;0.30;;;;;;;;;;5043702;28;20191;-67
2021/12/10 03:01:46;;;;;;;0.30;0.30;;;;;;;;;;5035619;28;20216;-67
2021/12/10 03:04:14;;;;;;;0.30;0.30;;;;;;;;;;5039345;28;20731;-67
2021/12/10 03:06:45;;;;;;;0.20;0.20;;;;;;;;;;5042826;28;20233;-67
2021/12/10 03:09:12;;;;;;;0.40;0.40;;;;;;;;;;5042799;28;20203;-67
2021/12/10 03:11:45;;;;;;;0.30;0.30;;;;;;;;;;5043707;28;20223;-67
2021/12/10 03:14:15;;;;;;;0.43;0.40;;;;;;;;;;5059667;28;20721;-67
2021/12/10 03:16:43;;;;;;;0.30;0.30;;;;;;;;;;5039462;28;20227;-67
2021/12/10 03:19:11;;;;;;;0.30;0.30;;;;;;;;;;5034512;28;20234;-67
2021/12/10 03:21:39;;;;;;;0.40;0.40;;;;;;;;;;5037355;28;20259;-67
2021/12/10 03:24:07;;;;;;;0.20;0.20;;;;;;;;;;5027172;28;20210;-68
2021/12/10 03:26:35;;;;;;;0.30;0.30;;;;;;;;;;5033936;28;20239;-68
2021/12/10 03:29:03;;;;;;;0.30;0.30;;;;;;;;;;5043642;28;20581;-68
2021/12/10 03:31:32;;;;;;;0.10;0.10;;;;;;;;;;5040434;28;20278;-68
2021/12/10 03:34:00;;;;;;;0.20;0.20;;;;;;;;;;5042944;28;20208;-68
2021/12/10 03:36:27;;;;;;;0.20;0.20;;;;;;;;;;5044598;28;20200;-67
2021/12/10 03:38:55;;;;;;;0.30;0.30;;;;;;;;;;5037586;28;20199;-67
2021/12/10 03:41:24;;;;;;;0.30;0.30;;;;;;;;;;5038217;28;20588;-67
2021/12/10 03:43:53;;;;;;;0.22;0.20;;;;;;;;;;5036670;28;20278;-67
2021/12/10 03:46:21;;;;;;;0.20;0.20;;;;;;;;;;5039141;28;20212;-67
2021/12/10 03:48:49;;;;;;;0.20;0.20;;;;;;;;;;5036255;28;20223;-68
2021/12/10 03:51:19;;;;;;;0.30;0.30;;;;;;;;;;5056601;28;20305;-67
2021/12/10 03:53:47;;;;;;;0.20;0.20;;;;;;;;;;5037758;28;20653;-67
2021/12/10 03:56:17;;;;;;;0.20;0.20;;;;;;;;;;5036750;28;20196;-67
2021/12/10 03:58:45;;;;;;;0.20;0.20;;;;;;;;;;5041471;28;20219;-67
2021/12/10 04:01:14;;;;;;;0.30;0.30;;;;;;;;;;5039786;28;20219;-68
2021/12/10 04:03:42;;;;;;;0.20;0.20;;;;;;;;;;5043140;28;20286;-68
2021/12/10 04:06:11;;;;;;;0.20;0.20;;;;;;;;;;5039677;28;20233;-68
2021/12/10 04:08:38;;;;;;;0.20;0.20;;;;;;;;;;5037789;28;20335;-68
2021/12/10 04:11:06;;;;;;;0.20;0.20;;;;;;;;;;5039940;28;20705;-68
2021/12/10 04:13:33;;;;;;;0.20;0.20;;;;;;;;;;5044528;28;20282;-68
2021/12/10 04:16:02;;;;;;;0.20;0.20;;;;;;;;;;5034400;28;20203;-67
2021/12/10 04:18:30;;;;;;;0.10;0.10;;;;;;;;;;5041468;28;20268;-68
2021/12/10 04:20:58;;;;;;;0.20;0.20;;;;;;;;;;5038928;28;20199;-68
2021/12/10 04:23:27;;;;;;;0.30;0.30;;;;;;;;;;5043657;28;20184;-67
2021/12/10 04:25:54;;;;;;;0.30;0.30;;;;;;;;;;5043829;28;20208;-68
2021/12/10 04:28:23;;;;;;;0.20;0.20;;;;;;;;;;5040787;28;20665;-67
2021/12/10 04:30:51;;;;;;;0.20;0.20;;;;;;;;;;5037356;28;20980;-68
2021/12/10 04:33:21;;;;;;;0.20;0.20;;;;;;;;;;5034981;28;20215;-68
2021/12/10 04:35:50;;;;;;;0.30;0.30;;;;;;;;;;5036120;28;20202;-68
2021/12/10 04:38:18;;;;;;;0.20;0.20;;;;;;;;;;5034859;28;20607;-68
2021/12/10 04:40:48;;;;;;;0.20;0.20;;;;;;;;;;5038382;28;20219;-68
2021/12/10 04:43:16;;;;;;;0.20;0.20;;;;;;;;;;5032651;28;20204;-68
2021/12/10 04:45:43;;;;;;;0.20;0.20;;;;;;;;;;5038663;28;20216;-68
2021/12/10 04:48:11;;;;;;;0.20;0.20;;;;;;;;;;5039580;28;20231;-68
2021/12/10 04:50:38;;;;;;;0.20;0.20;;;;;;;;;;5042606;28;20201;-68
2021/12/10 04:53:07;;;;;;;0.17;0.17;;;;;;;;;;5044111;28;20227;-68
2021/12/10 04:55:34;;;;;;;0.20;0.20;;;;;;;;;;5044421;28;20219;-68
2021/12/10 04:58:02;;;;;;;0.20;0.20;;;;;;;;;;5039527;28;20201;-68
2021/12/10 05:00:35;;;;;;;0.20;0.20;;;;;;;;;;5044899;28;20188;-68
2021/12/10 05:03:05;;;;;;;0.20;0.20;;;;;;;;;;5044002;28;20219;-68
2021/12/10 05:05:32;;;;;;;0.20;0.20;;;;;;;;;;5048642;28;20249;-68
2021/12/10 05:08:00;;;;;;;0.20;0.20;;;;;;;;;;5040415;28;20257;-68
2021/12/10 05:10:27;;;;;;;0.20;0.20;;;;;;;;;;5036713;28;21209;-68
2021/12/10 05:12:54;;;;;;;0.25;0.25;;;;;;;;;;5040857;28;20219;-68
2021/12/10 05:15:26;;;;;;;0.20;0.20;;;;;;;;;;5042279;28;20199;-68
2021/12/10 05:17:55;;;;;;;0.30;0.30;;;;;;;;;;5047638;28;20260;-68
2021/12/10 05:20:25;;;;;;;0.30;0.30;;;;;;;;;;5040560;28;20222;-68
2021/12/10 05:22:53;;;;;;;0.20;0.20;;;;;;;;;;5042862;28;20251;-68
2021/12/10 05:25:20;;;;;;;0.20;0.20;;;;;;;;;;5061179;28;20203;-67
2021/12/10 05:27:48;;;;;;;0.20;0.20;;;;;;;;;;5041752;28;20692;-68
2021/12/10 05:30:17;;;;;;;0.28;0.28;;;;;;;;;;5041306;28;20196;-68
2021/12/10 05:32:46;;;;;;;0.20;0.20;;;;;;;;;;5056941;28;20224;-68
2021/12/10 05:35:13;;;;;;;0.20;0.20;;;;;;;;;;5041605;28;20267;-69
2021/12/10 05:37:41;;;;;;;0.20;0.20;;;;;;;;;;5049731;28;20302;-68
2021/12/10 05:40:11;;;;;;;0.20;0.20;;;;;;;;;;5040337;28;20311;-67
2021/12/10 05:42:38;;;;;;;0.20;0.20;;;;;;;;;;5036395;28;20220;-67
2021/12/10 05:45:06;;;;;;;0.20;0.20;;;;;;;;;;5041149;28;20657;-67
2021/12/10 05:47:33;;;;;;;0.20;0.20;;;;;;;;;;5059415;28;20214;-67
2021/12/10 05:50:01;;;;;;;0.20;0.20;;;;;;;;;;5040530;28;20200;-67
2021/12/10 05:52:29;;;;;;;0.20;0.20;;;;;;;;;;5037544;28;20211;-67
2021/12/10 05:54:56;;;;;;;0.20;0.20;;;;;;;;;;5041060;28;20195;-67
2021/12/10 05:57:23;;;;;;;0.20;0.20;;;;;;;;;;5047195;28;20233;-67
2021/12/10 05:59:51;;;;;;;0.20;0.20;;;;;;;;;;5045635;28;20199;-66
2021/12/10 06:02:18;;;;;;;0.20;0.20;;;;;;;;;;5045333;28;20283;-66
2021/12/10 06:04:45;;;;;;;0.20;0.20;;;;;;;;;;5042250;28;20282;-67
2021/12/10 06:07:14;;;;;;;0.10;0.10;;;;;;;;;;5038681;28;20223;-67
2021/12/10 06:09:41;;;;;;;0.20;0.20;;;;;;;;;;5044049;28;20703;-66
2021/12/10 06:12:09;;;;;;;0.20;0.20;;;;;;;;;;5043876;28;20302;-66
2021/12/10 06:14:36;;;;;;;0.10;0.10;;;;;;;;;;5039660;28;20191;-67
2021/12/10 06:17:04;;;;;;;0.20;0.20;;;;;;;;;;5044385;28;20230;-67
2021/12/10 06:19:31;;;;;;;0.10;0.10;;;;;;;;;;5040804;28;20207;-67
2021/12/10 06:21:59;;;;;;;0.20;0.20;;;;;;;;;;5042801;28;20573;-68
2021/12/10 06:24:27;;;;;;;0.20;0.20;;;;;;;;;;5044393;28;20212;-67
2021/12/10 06:26:55;;;;;;;0.20;0.20;;;;;;;;;;5045717;28;20211;-67
2021/12/10 06:29:24;;;;;;;0.10;0.10;;;;;;;;;;5035338;28;20188;-67
2021/12/10 06:31:51;;;;;;;0.10;0.10;;;;;;;;;;5038768;28;20219;-68
2021/12/10 06:34:19;;;;;;;0.10;0.10;;;;;;;;;;5036859;28;20202;-69
2021/12/10 06:36:48;;;;;;;0.20;0.20;;;;;;;;;;5046309;28;20194;-68
2021/12/10 06:39:19;;;;;;;0.10;0.10;;;;;;;;;;5039531;28;20700;-68
2021/12/10 06:41:49;;;;;;;0.20;0.20;;;;;;;;;;5035428;28;20319;-69
2021/12/10 06:44:16;;;;;;;0.10;0.10;;;;;;;;;;5035188;28;20203;-69
2021/12/10 06:46:44;;;;;;;0.20;0.20;;;;;;;;;;5038238;28;20223;-70
2021/12/10 06:49:11;;;;;;;0.20;0.20;;;;;;;;;;5042011;28;20209;-70
2021/12/10 06:51:39;;;;;;;0.20;0.20;;;;;;;;;;5041135;28;20664;-70
2021/12/10 06:54:06;;;;;;;0.10;0.10;;;;;;;;;;5042411;28;20195;-70
2021/12/10 06:56:36;;;;;;;0.20;0.20;;;;;;;;;;5032508;28;20673;-68
2021/12/10 06:59:05;;;;;;;0.20;0.20;;;;;;;;;;5035603;28;20265;-69
2021/12/10 07:01:33;;;;;;;0.20;0.20;;;;;;;;;;5045928;28;20692;-70
2021/12/10 07:04:02;;;;;;;0.10;0.10;;;;;;;;;;5043079;28;20312;-71
2021/12/10 07:06:30;;;;;;;0.20;0.20;;;;;;;;;;5045677;28;20247;-71
2021/12/10 07:08:59;;;;;;;0.17;0.17;;;;;;;;;;5031661;28;20204;-70
2021/12/10 07:11:27;;;;;;;0.20;0.20;;;;;;;;;;5042141;28;20666;-71
2021/12/10 07:13:56;;;;;;;0.20;0.20;;;;;;;;;;5038619;28;20290;-70
2021/12/10 07:16:26;;;;;;;0.20;0.20;;;;;;;;;;5044440;28;20253;-69
2021/12/10 07:18:55;;;;;;;0.20;0.20;;;;;;;;;;5046906;28;20633;-69
2021/12/10 07:21:23;;;;;;;0.20;0.20;;;;;;;;;;5040448;28;20234;-69
2021/12/10 07:23:50;;;;;;;0.10;0.10;;;;;;;;;;5041242;28;20267;-69
2021/12/10 07:26:18;;;;;;;0.20;0.20;;;;;;;;;;5042687;28;20220;-69
2021/12/10 07:28:45;;;;;;;0.10;0.10;;;;;;;;;;5037213;28;20207;-69
2021/12/10 07:31:13;;;;;;;0.20;0.20;;;;;;;;;;5045093;28;20219;-70
2021/12/10 07:33:43;;;;;;;0.20;0.20;;;;;;;;;;5036801;28;20208;-70
2021/12/10 07:36:10;;;;;;;0.15;0.15;;;;;;;;;;5035226;28;20215;-70
2021/12/10 07:38:38;;;;;;;0.20;0.20;;;;;;;;;;5040362;28;20291;-70
2021/12/10 07:41:07;;;;;;;0.17;0.17;;;;;;;;;;5036755;28;20745;-70
2021/12/10 07:43:34;;;;;;;0.20;0.20;;;;;;;;;;5046269;28;20622;-70
2021/12/10 07:46:02;;;;;;;0.10;0.10;;;;;;;;;;5033517;28;21056;-71
2021/12/10 07:48:29;;;;;;;0.10;0.10;;;;;;;;;;5030742;28;20199;-70
2021/12/10 07:50:59;;;;;;;0.10;0.10;;;;;;;;;;5039467;28;20628;-67
2021/12/10 07:53:28;;;;;;;0.10;0.10;;;;;;;;;;5052365;28;20624;-69
2021/12/10 07:55:56;;;;;;;0.20;0.20;;;;;;;;;;5037327;28;20622;-69
2021/12/10 07:58:24;;;;;;;0.10;0.10;;;;;;;;;;5041683;28;20610;-69
2021/12/10 08:00:51;;;;;;;0.10;0.10;;;;;;;;;;5043220;28;20604;-69
2021/12/10 08:03:19;;;;;;;0.10;0.10;;;;;;;;;;5053178;28;20214;-69
2021/12/10 08:05:47;;;;;;;0.20;0.20;;;;;;;;;;5042190;28;20621;-70
2021/12/10 08:08:15;;;;;;;0.20;0.20;;;;;;;;;;5042717;28;20229;-70
2021/12/10 08:10:45;;;;;;;0.10;0.10;;;;;;;;;;5037955;28;20637;-69
2021/12/10 08:13:13;;;;;;;0.10;0.10;;;;;;;;;;5042502;28;20698;-69
2021/12/10 08:15:40;;;;;;;0.10;0.10;;;;;;;;;;5038039;28;20199;-69
2021/12/10 08:18:07;;;;;;;0.17;0.17;;;;;;;;;;5036765;28;20618;-69
2021/12/10 08:20:35;;;;;;;0.17;0.17;;;;;;;;;;5046154;28;20605;-69
2021/12/10 08:23:03;;;;;;;0.20;0.20;;;;;;;;;;5038951;28;20662;-67
2021/12/10 08:25:31;;;;;;;0.10;0.10;;;;;;;;;;5044170;28;20626;-68
2021/12/10 08:27:59;;;;;;;0.10;0.10;;;;;;;;;;5044030;28;21008;-69
2021/12/10 08:30:27;;;;;;;0.10;0.10;;;;;;;;;;5052998;28;20261;-69
2021/12/10 08:32:55;;;;;;;0.10;0.10;;;;;;;;;;5047254;28;20710;-67
2021/12/10 08:35:26;;;;;;;0.10;0.10;;;;;;;;;;5045146;28;20623;-70
2021/12/10 08:37:54;;;;;;;0.20;0.20;;;;;;;;;;5048874;28;20262;-68
2021/12/10 08:40:24;;;;;;;0.10;0.10;;;;;;;;;;5034364;28;20253;-70
2021/12/10 08:42:54;;;;;;;0.20;0.20;;;;;;;;;;5045845;28;20645;-70
2021/12/10 08:45:21;;;;;;;0.13;0.13;;;;;;;;;;5041315;28;20683;-70
2021/12/10 08:47:50;;;;;;;0.20;0.20;;;;;;;;;;5040988;28;20756;-70
2021/12/10 08:50:22;;;;;;;0.10;0.10;;;;;;;;;;5040575;28;20611;-70
2021/12/10 08:52:50;;;;;;;0.20;0.20;;;;;;;;;;5041267;28;20657;-69
2021/12/10 08:55:18;;;;;;;0.20;0.20;;;;;;;;;;5043824;28;20720;-67
2021/12/10 08:57:46;;;;;;;0.20;0.20;;;;;;;;;;5036729;28;20612;-70
2021/12/10 09:00:16;;;;;;;0.20;0.20;;;;;;;;;;5042506;28;20707;-70
2021/12/10 09:02:43;;;;;;;0.10;0.10;;;;;;;;;;5042188;28;20633;-70
2021/12/10 09:05:12;;;;;;;0.10;0.10;;;;;;;;;;5039101;28;20728;-70
2021/12/10 09:07:42;;;;;;;0.10;0.10;;;;;;;;;;5041397;28;20649;-70
2021/12/10 09:10:10;;;;;;;0.10;0.10;;;;;;;;;;5042069;28;20610;-69
2021/12/10 09:12:38;;;;;;;0.20;0.20;;;;;;;;;;5038697;28;20653;-67
2021/12/10 09:15:06;;;;;;;0.20;0.20;;;;;;;;;;5047598;28;20602;-69
2021/12/10 09:17:36;;;;;;;0.20;0.20;;;;;;;;;;5050156;28;20601;-70
2021/12/10 09:20:05;;;;;;;0.10;0.10;;;;;;;;;;5043930;28;20734;-70
2021/12/10 09:22:32;;;;;;;0.10;0.10;;;;;;;;;;5039977;28;20659;-70
2021/12/10 09:25:00;;;;;;;0.10;0.10;;;;;;;;;;5044542;28;20633;-70
2021/12/10 09:27:27;;;;;;;0.20;0.20;;;;;;;;;;5039394;28;20736;-70
2021/12/10 09:29:56;;;;;;;0.10;0.10;;;;;;;;;;5035289;28;20687;-70
2021/12/10 09:32:24;;;;;;;0.20;0.20;;;;;;;;;;5042380;28;20646;-69
2021/12/10 09:34:53;;;;;;;0.20;0.20;;;;;;;;;;5042024;28;20620;-71
2021/12/10 09:37:22;;;;;;;0.20;0.20;;;;;;;;;;5044683;28;20683;-70
2021/12/10 09:39:50;;;;;;;0.10;0.10;;;;;;;;;;5039766;28;20637;-70
2021/12/10 09:42:20;;;;;;;0.20;0.20;;;;;;;;;;5042699;28;20657;-70
2021/12/10 09:44:47;;;;;;;0.20;0.20;;;;;;;;;;5043814;28;20664;-70
2021/12/10 09:47:15;;;;;;;0.20;0.20;;;;;;;;;;5045045;28;20642;-71
2021/12/10 09:49:43;;;;;;;0.10;0.10;;;;;;;;;;5047550;28;20652;-70
2021/12/10 09:52:12;;;;;;;0.20;0.20;;;;;;;;;;5041013;28;20658;-70
2021/12/10 09:54:39;;;;;;;0.20;0.20;;;;;;;;;;5041760;28;20693;-71
2021/12/10 09:57:09;;;;;;;0.20;0.20;;;;;;;;;;5037469;28;20667;-72
2021/12/10 09:59:37;;;;;;;0.20;0.20;;;;;;;;;;5040346;28;20629;-70
2021/12/10 10:02:07;;;;;;;0.10;0.10;;;;;;;;;;5033068;28;20638;-71
2021/12/10 10:04:38;;;;;;;0.10;0.10;;;;;;;;;;5040382;28;20621;-71
2021/12/10 10:07:10;;;;;;;0.20;0.20;;;;;;;;;;5037535;28;20712;-72
2021/12/10 10:09:41;;;;;;;0.10;0.10;;;;;;;;;;5049680;28;20626;-73
2021/12/10 10:12:11;;;;;;;0.10;0.10;;;;;;;;;;5043269;28;20673;-73
2021/12/10 10:14:39;;;;;;;0.10;0.10;;;;;;;;;;5042335;28;20617;-73
2021/12/10 10:17:08;;;;;;;0.20;0.20;;;;;;;;;;5040769;28;20632;-74
2021/12/10 10:19:36;;;;;;;0.20;0.20;;;;;;;;;;5031602;28;20693;-71
2021/12/10 10:22:05;;;;;;;0.10;0.10;;;;;;;;;;5033820;28;20820;-74
2021/12/10 10:24:34;;;;;;;0.20;0.20;;;;;;;;;;5043857;28;20626;-73
2021/12/10 10:27:04;;;;;;;0.20;0.20;;;;;;;;;;5044252;28;20632;-73
2021/12/10 10:29:33;;;;;;;0.10;0.10;;;;;;;;;;5040924;28;20639;-73
2021/12/10 10:32:08;;;;;;;0.20;0.20;;;;;;;;;;5038693;28;21211;-72
2021/12/10 10:34:35;;;;;;;0.10;0.10;;;;;;;;;;5040356;28;21162;-73
2021/12/10 10:37:03;;;;;;;0.10;0.10;;;;;;;;;;5036931;28;20630;-73
2021/12/10 10:39:34;;;;;;;0.10;0.10;;;;;;;;;;5039576;28;20619;-74
2021/12/10 10:42:03;;;;;;;0.13;0.13;;;;;;;;;;5038927;28;20760;-73
2021/12/10 10:44:31;;;;;;;0.13;0.13;;;;;;;;;;5031670;28;20629;-74
2021/12/10 10:46:59;;;;;;;0.20;0.20;;;;;;;;;;5043392;28;20704;-74
2021/12/10 10:49:34;;;;;;;0.10;0.10;;;;;;;;;;5037784;28;20649;-74
2021/12/10 10:52:13;;;;;;;0.10;0.10;;;;;;;;;;5041168;28;20699;-73
2021/12/10 10:54:41;;;;;;;0.20;0.20;;;;;;;;;;5033759;28;20622;-73
2021/12/10 10:57:16;;;;;;;0.10;0.10;;;;;;;;;;5039997;28;20630;-73
2021/12/10 10:59:45;;;;;;;0.20;0.20;;;;;;;;;;5038005;28;20608;-74
2021/12/10 11:02:13;;;;;;;0.20;0.20;;;;;;;;;;5040702;28;20665;-73
2021/12/10 11:04:41;;;;;;;0.20;0.20;;;;;;;;;;5037724;28;20617;-74
2021/12/10 11:07:10;;;;;;;0.10;0.10;;;;;;;;;;5038376;28;20613;-75
2021/12/10 11:09:44;;;;;;;0.20;0.20;;;;;;;;;;5032480;28;20621;-75
2021/12/10 11:12:16;;;;;;;0.20;0.20;;;;;;;;;;5041167;28;20668;-75
2021/12/10 11:14:44;;;;;;;0.20;0.20;;;;;;;;;;5044826;28;20760;-75
2021/12/10 11:17:14;;;;;;;0.10;0.10;;;;;;;;;;5040084;28;20614;-74
2021/12/10 11:19:43;;;;;;;0.20;0.20;;;;;;;;;;5040242;28;20625;-74
2021/12/10 11:22:11;;;;;;;0.10;0.10;;;;;;;;;;5032551;28;20662;-73
2021/12/10 11:24:43;;;;;;;0.10;0.10;;;;;;;;;;5037654;28;21227;-72
2021/12/10 11:27:14;;;;;;;0.10;0.10;;;;;;;;;;5036755;28;20639;-74
2021/12/10 11:29:45;;;;;;;0.20;0.20;;;;;;;;;;5031243;28;21022;-73
2021/12/10 11:32:14;;;;;;;0.20;0.20;;;;;;;;;;5035916;28;20665;-73
2021/12/10 11:34:49;;;;;;;0.20;0.20;;;;;;;;;;5034636;28;20613;-73
2021/12/10 11:37:18;;;;;;;0.10;0.10;;;;;;;;;;5041893;28;20700;-73
2021/12/10 11:39:46;;;;;;;0.10;0.10;;;;;;;;;;5041063;28;21230;-73
2021/12/10 11:42:37;;;;;;;0.20;0.20;;;;;;;;;;5033039;28;20666;-73
2021/12/10 11:45:28;;;;;;;0.10;0.10;;;;;;;;;;5033971;28;20632;-73
2021/12/10 11:48:05;;;;;;;0.10;0.10;;;;;;;;;;5039782;28;20650;-73
2021/12/10 11:50:32;;;;;;;0.10;0.10;;;;;;;;;;5034909;28;20690;-73
2021/12/10 11:53:01;;;;;;;0.10;0.10;;;;;;;;;;5033735;28;21183;-72
2021/12/10 11:55:28;;;;;;;0.10;0.10;;;;;;;;;;5028901;28;20652;-73
2021/12/10 11:57:56;;;;;;;0.20;0.20;;;;;;;;;;5036179;28;20625;-74
2021/12/10 12:00:26;;;;;;;0.20;0.20;;;;;;;;;;5039397;28;20621;-72
2021/12/10 12:02:57;;;;;;;0.20;0.20;;;;;;;;;;5037066;28;20657;-73
2021/12/10 12:05:26;;;;;;;0.10;0.10;;;;;;;;;;5038130;28;21254;-73
2021/12/10 12:07:54;;;;;;;0.20;0.20;;;;;;;;;;5055121;28;20658;-72
2021/12/10 12:10:24;;;;;;;0.20;0.20;;;;;;;;;;5032990;28;20643;-72
2021/12/10 12:12:52;;;;;;;0.10;0.10;;;;;;;;;;5035784;28;20746;-72
2021/12/10 12:15:29;;;;;;;0.20;0.20;;;;;;;;;;5041949;28;20630;-72
2021/12/10 12:17:58;;;;;;;0.10;0.10;;;;;;;;;;5037401;28;21204;-72
2021/12/10 12:20:28;;;;;;;0.10;0.10;;;;;;;;;;5041613;28;20736;-72
2021/12/10 12:25:50;;;;;;;0.17;0.17;;;;;;;;;;5052992;28;20625;-73
2021/12/10 12:28:18;;;;;;;0.10;0.10;;;;;;;;;;5042026;28;20653;-72
2021/12/10 12:30:55;;;;;;;0.10;0.10;;;;;;;;;;5037363;28;21259;-72
2021/12/10 12:33:24;;;;;;;0.10;0.10;;;;;;;;;;5026530;28;20707;-72
2021/12/10 12:35:52;;;;;;;0.20;0.20;;;;;;;;;;5031285;28;20634;-73
2021/12/10 12:38:21;;;;;;;0.10;0.10;;;;;;;;;;5040759;28;20606;-73
2021/12/10 12:41:04;;;;;;;0.10;0.10;;;;;;;;;;5037236;28;20629;-73
2021/12/10 12:43:31;;;;;;;0.20;0.20;;;;;;;;;;5030560;28;20646;-72
2021/12/10 12:46:05;;;;;;;0.10;0.10;;;;;;;;;;5030756;28;20613;-72
2021/12/10 12:48:32;;;;;;;0.10;0.10;;;;;;;;;;5033225;28;20693;-72
2021/12/10 12:51:02;;;;;;;0.10;0.10;;;;;;;;;;5036378;28;20722;-71
2021/12/10 12:53:34;;;;;;;0.10;0.10;;;;;;;;;;5029986;28;20626;-72
2021/12/10 12:56:05;;;;;;;0.10;0.10;;;;;;;;;;5033308;28;20613;-73
2021/12/10 12:58:34;;;;;;;0.20;0.20;;;;;;;;;;5037119;28;20637;-73
2021/12/10 13:01:05;;;;;;;0.10;0.10;;;;;;;;;;5034064;28;21238;-72
2021/12/10 13:03:37;;;;;;;0.10;0.10;;;;;;;;;;5041411;28;20625;-72
2021/12/10 13:06:10;;;;;;;0.17;0.17;;;;;;;;;;5040487;28;20724;-72
2021/12/10 13:08:39;;;;;;;0.10;0.10;;;;;;;;;;5034082;28;20751;-72
2021/12/10 13:11:16;;;;;;;0.20;0.20;;;;;;;;;;5042825;28;20680;-71
2021/12/10 13:13:46;;;;;;;0.10;0.10;;;;;;;;;;5035097;28;21266;-71
2021/12/10 13:16:13;;;;;;;0.20;0.20;;;;;;;;;;5035708;28;20644;-70
2021/12/10 13:18:43;;;;;;;0.10;0.10;;;;;;;;;;5039308;28;20632;-70
2021/12/10 13:21:13;;;;;;;0.10;0.10;;;;;;;;;;5034776;28;20672;-69
2021/12/10 13:23:41;;;;;;;0.20;0.20;;;;;;;;;;5044163;28;20636;-70
2021/12/10 13:26:10;;;;;;;0.10;0.10;;;;;;;;;;5040182;28;20623;-70
2021/12/10 13:28:38;;;;;;;0.10;0.10;;;;;;;;;;5038077;28;20657;-71
2021/12/10 13:31:07;;;;;;;0.20;0.20;;;;;;;;;;5034342;28;20712;-70
2021/12/10 13:33:41;;;;;;;0.10;0.10;;;;;;;;;;5036642;28;20623;-71
2021/12/10 13:36:11;;;;;;;0.10;0.10;;;;;;;;;;5043086;28;20648;-70
2021/12/10 13:38:39;;;;;;;0.10;0.10;;;;;;;;;;5043866;28;20660;-70
2021/12/10 13:41:07;;;;;;;0.20;0.20;;;;;;;;;;5041697;28;20650;-70
2021/12/10 13:43:34;;;;;;;0.10;0.10;;;;;;;;;;5038702;28;20727;-70
2021/12/10 13:46:10;;;;;;;0.10;0.10;;;;;;;;;;5058861;28;20634;-70
2021/12/10 13:48:39;;;;;;;0.10;0.10;;;;;;;;;;5038743;28;20652;-70
2021/12/10 13:51:08;;;;;;;0.10;0.10;;;;;;;;;;5042258;28;20654;-70
2021/12/10 13:53:36;;;;;;;0.10;0.10;;;;;;;;;;5038305;28;21205;-70
2021/12/10 13:56:06;;;;;;;0.10;0.10;;;;;;;;;;5035654;28;20677;-70
2021/12/10 13:58:37;;;;;;;0.20;0.20;;;;;;;;;;5041773;28;20642;-70
2021/12/10 14:01:07;;;;;;;0.10;0.10;;;;;;;;;;5043398;28;20657;-70
2021/12/10 14:03:52;;;;;;;0.10;0.10;;;;;;;;;;5038946;28;20699;-70
2021/12/10 14:06:21;;;;;;;0.10;0.10;;;;;;;;;;5050131;28;20605;-70
2021/12/10 14:09:07;;;;;;;0.10;0.10;;;;;;;;;;5037457;28;20641;-70
2021/12/10 14:11:52;;;;;;;0.10;0.10;;;;;;;;;;5038305;28;20633;-70
2021/12/10 14:14:20;;;;;;;0.10;0.10;;;;;;;;;;5058923;28;20614;-70
2021/12/10 14:16:48;;;;;;;0.10;0.10;;;;;;;;;;5036948;28;20609;-70
2021/12/10 14:19:28;;;;;;;0.10;0.10;;;;;;;;;;5039697;28;20662;-71
2021/12/10 14:21:55;;;;;;;0.10;0.10;;;;;;;;;;5038651;28;20641;-70
2021/12/10 14:24:33;;;;;;;0.20;0.20;;;;;;;;;;5036928;28;20623;-69
2021/12/10 14:27:08;;;;;;;0.10;0.10;;;;;;;;;;5059325;28;21179;-69
2021/12/10 14:29:35;;;;;;;0.10;0.10;;;;;;;;;;5036675;28;20661;-70
2021/12/10 14:32:03;;;;;;;0.10;0.10;;;;;;;;;;5040849;28;20685;-70
2021/12/10 14:34:30;;;;;;;0.20;0.20;;;;;;;;;;5038227;28;20626;-70
2021/12/10 14:37:00;;;;;;;0.10;0.10;;;;;;;;;;5044471;28;20618;-70
2021/12/10 14:39:27;;;;;;;0.10;0.10;;;;;;;;;;5047402;28;20610;-70
2021/12/10 14:41:55;;;;;;;0.20;0.20;;;;;;;;;;5032133;28;20657;-71
2021/12/10 14:44:25;;;;;;;0.17;0.17;;;;;;;;;;5034640;28;20736;-70
2021/12/10 14:46:53;;;;;;;0.10;0.10;;;;;;;;;;5038944;28;20729;-71
2021/12/10 14:49:24;;;;;;;0.20;0.20;;;;;;;;;;5037446;28;20749;-71
2021/12/10 14:52:06;;;;;;;0.10;0.10;;;;;;;;;;5034878;28;20645;-71
2021/12/10 14:54:34;;;;;;;0.10;0.10;;;;;;;;;;5043064;28;20704;-70
2021/12/10 14:57:02;;;;;;;0.10;0.10;;;;;;;;;;5037564;28;20623;-70
2021/12/10 14:59:36;;;;;;;0.20;0.20;;;;;;;;;;5040984;28;20619;-71
2021/12/10 15:02:10;;;;;;;0.10;0.10;;;;;;;;;;5053924;28;20665;-70
2021/12/10 15:04:44;;;;;;;0.13;0.13;;;;;;;;;;5042742;28;20657;-70
2021/12/10 15:07:15;;;;;;;0.10;0.10;;;;;;;;;;5037073;28;20652;-70